Time;durP1;ratioP1;P1;durP2;ratioP2;P2;SDS_P1;SDS_P2;PMS_P1;PMS_P2;Temp;Humidity;BMP_temperature;BMP_pressure;BME280_temperature;BME280_humidity;BME280_pressure;Samples;Min_cycle;Max_cycle;Signal;HPM_P1;HPM_P2
2023/09/04 00:02:09;;;;;;;12.68;9.30;;;;;;;12.34;100.00;101811.69;5031215;28;20394;-77
2023/09/04 00:04:35;;;;;;;15.00;9.75;;;;;;;12.38;100.00;101810.25;5030679;28;20041;-77
2023/09/04 00:07:02;;;;;;;13.57;8.68;;;;;;;12.31;100.00;101817.56;5033580;28;20029;-77
2023/09/04 00:09:28;;;;;;;12.00;8.68;;;;;;;12.27;100.00;101824.50;5031652;28;20045;-77
2023/09/04 00:11:55;;;;;;;10.93;8.50;;;;;;;12.22;100.00;101823.22;5031791;28;20045;-78
2023/09/04 00:14:21;;;;;;;11.93;8.55;;;;;;;12.19;100.00;101820.84;5035790;28;20037;-78
2023/09/04 00:16:47;;;;;;;10.95;9.10;;;;;;;12.21;100.00;101823.41;5030303;28;20398;-78
2023/09/04 00:19:13;;;;;;;11.07;9.30;;;;;;;12.25;100.00;101819.22;5035054;28;20033;-78
2023/09/04 00:21:39;;;;;;;12.93;9.32;;;;;;;12.27;100.00;101808.91;5033183;28;20033;-77
2023/09/04 00:24:05;;;;;;;13.10;9.48;;;;;;;12.22;100.00;101822.34;5040637;28;20164;-78
2023/09/04 00:26:31;;;;;;;11.85;9.73;;;;;;;12.19;100.00;101826.31;5031059;28;20403;-77
2023/09/04 00:28:57;;;;;;;13.82;10.15;;;;;;;12.20;100.00;101817.09;5031078;28;20033;-77
2023/09/04 00:31:23;;;;;;;10.98;9.25;;;;;;;12.14;100.00;101819.78;5034586;28;20029;-78
2023/09/04 00:33:50;;;;;;;12.40;8.50;;;;;;;12.02;100.00;101825.78;5037729;28;20033;-78
2023/09/04 00:36:17;;;;;;;9.95;7.47;;;;;;;11.86;100.00;101831.50;5037198;28;20065;-77
2023/09/04 00:38:43;;;;;;;14.38;9.15;;;;;;;11.90;100.00;101822.69;5036084;28;20393;-77
2023/09/04 00:41:09;;;;;;;13.48;9.55;;;;;;;12.00;100.00;101805.94;5035073;28;20037;-77
2023/09/04 00:43:36;;;;;;;15.00;9.93;;;;;;;12.08;100.00;101800.38;5030764;28;20486;-77
2023/09/04 00:46:03;;;;;;;12.40;9.55;;;;;;;12.08;100.00;101799.53;5031074;28;20045;-77
2023/09/04 00:48:30;;;;;;;13.43;8.30;;;;;;;11.91;100.00;101821.66;5031455;28;20477;-77
2023/09/04 00:50:57;;;;;;;10.48;8.48;;;;;;;11.68;100.00;101815.56;5036694;28;20287;-77
2023/09/04 00:53:24;;;;;;;11.10;8.70;;;;;;;11.75;100.00;101827.41;5031231;28;20041;-77
2023/09/04 00:55:50;;;;;;;13.55;9.25;;;;;;;11.80;100.00;101824.94;5033317;28;20654;-77
2023/09/04 00:58:16;;;;;;;12.30;9.38;;;;;;;11.86;100.00;101821.41;5034695;28;20128;-77
2023/09/04 01:00:44;;;;;;;11.75;9.43;;;;;;;11.87;100.00;101820.34;5039408;28;20080;-77
2023/09/04 01:03:12;;;;;;;12.40;9.38;;;;;;;11.93;100.00;101824.19;5037720;28;20037;-77
2023/09/04 01:05:38;;;;;;;11.55;9.10;;;;;;;11.86;100.00;101826.88;5036238;28;20041;-77
2023/09/04 01:08:05;;;;;;;12.88;8.85;;;;;;;11.82;100.00;101824.75;5033177;28;20067;-77
2023/09/04 01:10:42;;;;;;;14.20;9.90;;;;;;;11.76;100.00;101818.16;5034037;28;20071;-77
2023/09/04 01:13:22;;;;;;;11.32;9.40;;;;;;;11.73;100.00;101818.56;5034542;28;20061;-77
2023/09/04 01:15:48;;;;;;;10.88;8.60;;;;;;;11.72;100.00;101822.34;5033509;28;20040;-77
2023/09/04 01:18:14;;;;;;;10.50;8.45;;;;;;;11.66;100.00;101818.50;5034287;28;20056;-77
2023/09/04 01:20:41;;;;;;;11.90;8.40;;;;;;;11.63;100.00;101824.34;5020939;28;20041;-77
2023/09/04 01:23:08;;;;;;;9.80;8.13;;;;;;;11.58;100.00;101818.63;5038579;28;20053;-77
2023/09/04 01:25:44;;;;;;;12.73;8.82;;;;;;;11.54;100.00;101818.16;5034283;28;20055;-77
2023/09/04 01:28:40;;;;;;;13.27;8.88;;;;;;;11.55;100.00;101811.66;5040290;28;20037;-77
2023/09/04 01:31:12;;;;;;;10.50;8.68;;;;;;;11.51;100.00;101802.97;5033145;28;20083;-77
2023/09/04 01:33:47;;;;;;;11.60;9.52;;;;;;;11.51;100.00;101804.88;5034629;28;20424;-77
2023/09/04 01:36:16;;;;;;;11.75;8.68;;;;;;;11.41;100.00;101816.13;5021366;28;20377;-77
2023/09/04 01:38:45;;;;;;;12.20;8.75;;;;;;;11.31;100.00;101821.91;5021045;28;20037;-77
2023/09/04 01:41:11;;;;;;;13.27;10.32;;;;;;;11.27;100.00;101823.34;5034149;28;20033;-77
2023/09/04 01:43:37;;;;;;;11.45;9.23;;;;;;;11.23;100.00;101822.88;5036725;28;20032;-77
2023/09/04 01:46:03;;;;;;;11.93;9.32;;;;;;;11.20;100.00;101819.69;5037679;28;20107;-77
2023/09/04 01:48:29;;;;;;;11.35;9.45;;;;;;;11.20;100.00;101814.22;5037467;28;20416;-77
2023/09/04 01:50:56;;;;;;;13.50;10.60;;;;;;;11.21;100.00;101815.91;5032659;28;20041;-77
2023/09/04 01:53:22;;;;;;;17.45;11.32;;;;;;;11.24;100.00;101807.34;5033758;28;20033;-77
2023/09/04 01:55:48;;;;;;;13.82;10.90;;;;;;;11.27;100.00;101809.69;5040225;28;20029;-77
2023/09/04 01:58:15;;;;;;;14.90;10.48;;;;;;;11.24;100.00;101799.16;5037575;28;20034;-77
2023/09/04 02:00:43;;;;;;;14.55;11.32;;;;;;;11.26;100.00;101799.78;5048069;28;20078;-77
2023/09/04 02:03:09;;;;;;;14.02;11.05;;;;;;;11.23;100.00;101801.00;5038210;28;20041;-77
2023/09/04 02:05:39;;;;;;;14.25;10.32;;;;;;;11.13;100.00;101800.50;5032943;28;20082;-77
2023/09/04 02:08:07;;;;;;;14.02;10.45;;;;;;;11.02;100.00;101810.03;5033034;28;20053;-76
2023/09/04 02:10:36;;;;;;;16.02;10.43;;;;;;;11.00;100.00;101809.38;5036396;28;20039;-77
2023/09/04 02:13:03;;;;;;;14.40;11.73;;;;;;;11.12;100.00;101797.94;5032607;28;20525;-77
2023/09/04 02:15:34;;;;;;;14.98;10.52;;;;;;;11.10;100.00;101786.38;5021081;28;20029;-77
2023/09/04 02:18:02;;;;;;;13.95;11.18;;;;;;;11.07;100.00;101791.16;5041386;28;20029;-77
2023/09/04 02:20:29;;;;;;;16.58;10.70;;;;;;;11.11;100.00;101794.38;5034258;28;20033;-77
2023/09/04 02:22:55;;;;;;;15.13;11.50;;;;;;;11.13;100.00;101795.03;5036635;28;20044;-77
2023/09/04 02:25:22;;;;;;;17.65;12.60;;;;;;;11.16;100.00;101796.53;5031908;28;20466;-77
2023/09/04 02:27:48;;;;;;;13.52;11.35;;;;;;;11.13;100.00;101805.09;5033101;28;20036;-77
2023/09/04 02:30:14;;;;;;;15.13;11.57;;;;;;;11.16;100.00;101796.53;5032704;28;20026;-77
2023/09/04 02:32:40;;;;;;;16.05;11.32;;;;;;;11.16;100.00;101800.09;5033014;28;20091;-77
2023/09/04 02:35:07;;;;;;;15.85;11.73;;;;;;;11.12;100.00;101795.22;5042699;28;20497;-77
2023/09/04 02:37:34;;;;;;;20.33;13.52;;;;;;;11.14;100.00;101787.66;5032313;28;20038;-77
2023/09/04 02:40:00;;;;;;;18.88;13.10;;;;;;;11.14;100.00;101793.13;5046545;28;20049;-77
2023/09/04 02:42:29;;;;;;;18.73;14.27;;;;;;;11.15;100.00;101787.47;5045153;28;20040;-77
2023/09/04 02:44:55;;;;;;;17.48;13.30;;;;;;;11.15;100.00;101784.75;5032508;28;20045;-77
2023/09/04 02:47:21;;;;;;;17.15;12.25;;;;;;;11.07;100.00;101788.44;5039099;28;20069;-77
2023/09/04 02:49:47;;;;;;;16.35;12.02;;;;;;;10.98;100.00;101797.78;5031900;28;20061;-78
2023/09/04 02:52:14;;;;;;;15.00;11.88;;;;;;;10.96;100.00;101786.22;5034027;28;20040;-77
2023/09/04 02:54:41;;;;;;;17.63;12.38;;;;;;;10.92;100.00;101788.47;5042404;28;20481;-77
2023/09/04 02:57:07;;;;;;;13.13;10.23;;;;;;;10.85;100.00;101789.44;5035320;28;20030;-77
2023/09/04 02:59:35;;;;;;;12.63;10.05;;;;;;;10.73;100.00;101800.84;5032218;28;20545;-77
2023/09/04 03:02:02;;;;;;;12.57;9.63;;;;;;;10.61;100.00;101797.75;5032399;28;20397;-77
2023/09/04 03:04:29;;;;;;;12.35;9.20;;;;;;;10.53;100.00;101805.19;5039267;28;20096;-78
2023/09/04 03:06:55;;;;;;;11.82;9.00;;;;;;;10.42;100.00;101798.31;5031193;28;20128;-77
2023/09/04 03:09:21;;;;;;;9.00;7.57;;;;;;;10.35;100.00;101798.19;5034446;28;20049;-77
2023/09/04 03:11:48;;;;;;;15.07;11.50;;;;;;;10.31;100.00;101802.31;5035421;28;20481;-77
2023/09/04 03:14:15;;;;;;;14.95;11.98;;;;;;;10.31;100.00;101788.66;5036225;28;20033;-77
2023/09/04 03:16:42;;;;;;;17.23;13.20;;;;;;;10.30;100.00;101795.16;5039942;28;20148;-76
2023/09/04 03:19:08;;;;;;;28.23;17.67;;;;;;;10.44;100.00;101782.59;5045379;28;20064;-76
2023/09/04 03:21:34;;;;;;;19.90;15.90;;;;;;;10.48;100.00;101762.94;5041734;28;20033;-76
2023/09/04 03:24:00;;;;;;;22.95;16.13;;;;;;;10.50;100.00;101771.78;5031942;28;20124;-76
2023/09/04 03:26:27;;;;;;;24.38;16.38;;;;;;;10.65;100.00;101776.41;5031137;28;20037;-76
2023/09/04 03:28:53;;;;;;;22.02;15.68;;;;;;;10.74;100.00;101767.06;5030392;28;20037;-76
2023/09/04 03:31:19;;;;;;;21.83;14.90;;;;;;;10.75;100.00;101763.28;5051150;28;20378;-77
2023/09/04 03:33:46;;;;;;;21.07;14.10;;;;;;;10.85;100.00;101760.25;5044197;28;20041;-77
2023/09/04 03:36:12;;;;;;;18.35;13.07;;;;;;;10.95;100.00;101754.50;5035809;28;20342;-77
2023/09/04 03:38:39;;;;;;;15.85;11.98;;;;;;;10.99;100.00;101758.53;5024490;28;20120;-76
2023/09/04 03:41:06;;;;;;;17.98;12.82;;;;;;;10.95;100.00;101773.59;5036531;28;20047;-76
2023/09/04 03:43:33;;;;;;;15.02;11.73;;;;;;;10.96;100.00;101767.09;5035528;28;20030;-75
2023/09/04 03:46:00;;;;;;;19.67;14.15;;;;;;;10.97;100.00;101762.47;5033584;28;20045;-76
2023/09/04 03:48:27;;;;;;;16.67;13.00;;;;;;;10.92;100.00;101774.00;5034963;28;20041;-76
2023/09/04 03:50:53;;;;;;;22.42;14.20;;;;;;;10.94;100.00;101770.03;5035295;28;20116;-76
2023/09/04 03:53:19;;;;;;;19.13;14.52;;;;;;;10.91;100.00;101772.31;5033592;28;20413;-75
2023/09/04 03:55:45;;;;;;;17.40;13.38;;;;;;;10.87;100.00;101771.84;5029647;28;20041;-75
2023/09/04 03:58:12;;;;;;;17.67;13.23;;;;;;;10.84;100.00;101787.72;5030713;28;20022;-76
2023/09/04 04:00:38;;;;;;;17.40;13.07;;;;;;;10.78;100.00;101781.19;5041426;28;20119;-75
2023/09/04 04:03:04;;;;;;;19.80;13.73;;;;;;;10.74;100.00;101777.97;5040282;28;20037;-76
2023/09/04 04:05:31;;;;;;;18.33;13.07;;;;;;;10.70;100.00;101779.41;5040501;28;20513;-76
2023/09/04 04:07:57;;;;;;;17.70;13.27;;;;;;;10.69;100.00;101779.56;5036883;28;20128;-78
2023/09/04 04:10:23;;;;;;;15.25;11.88;;;;;;;10.61;100.00;101791.47;5031071;28;20030;-77
2023/09/04 04:12:53;;;;;;;18.23;12.60;;;;;;;10.49;100.00;101804.72;5035218;28;20436;-77
2023/09/04 04:15:19;;;;;;;16.85;11.90;;;;;;;10.40;100.00;101803.97;5035692;28;20034;-77
2023/09/04 04:17:45;;;;;;;17.60;13.38;;;;;;;10.48;100.00;101795.69;5030853;28;20057;-76
2023/09/04 04:20:12;;;;;;;19.80;14.07;;;;;;;10.49;100.00;101791.91;5033362;28;20056;-76
2023/09/04 04:22:41;;;;;;;18.45;14.23;;;;;;;10.50;100.00;101790.88;5042277;28;20099;-77
2023/09/04 04:25:08;;;;;;;18.50;14.05;;;;;;;10.58;100.00;101780.91;5035689;28;20044;-77
2023/09/04 04:27:34;;;;;;;20.05;14.15;;;;;;;10.66;100.00;101783.53;5036195;28;20029;-77
2023/09/04 04:30:00;;;;;;;18.58;13.68;;;;;;;10.65;100.00;101785.41;5034168;28;20068;-76
2023/09/04 04:32:29;;;;;;;17.80;13.65;;;;;;;10.64;100.00;101782.88;5040786;28;20064;-78
2023/09/04 04:34:56;;;;;;;18.05;13.32;;;;;;;10.66;100.00;101786.28;5042466;28;20550;-76
2023/09/04 04:37:22;;;;;;;17.90;12.98;;;;;;;10.65;100.00;101795.50;5051265;28;20030;-76
2023/09/04 04:39:50;;;;;;;20.55;12.82;;;;;;;10.59;100.00;101796.22;5052426;28;20033;-77
2023/09/04 04:42:16;;;;;;;18.67;12.88;;;;;;;10.55;100.00;101795.78;5032385;28;20067;-76
2023/09/04 04:44:43;;;;;;;20.30;13.68;;;;;;;10.52;100.00;101792.56;5038657;28;20075;-76
2023/09/04 04:47:10;;;;;;;20.77;13.30;;;;;;;10.53;100.00;101791.53;5042933;28;20499;-81
2023/09/04 04:49:36;;;;;;;17.23;12.13;;;;;;;10.50;100.00;101793.59;5043580;28;20043;-77
2023/09/04 04:52:03;;;;;;;17.58;11.95;;;;;;;10.46;100.00;101794.16;5041036;28;20116;-77
2023/09/04 04:54:29;;;;;;;16.92;12.00;;;;;;;10.44;100.00;101804.41;5034955;28;20072;-76
2023/09/04 04:56:55;;;;;;;17.67;12.57;;;;;;;10.42;100.00;101795.56;5033437;28;20049;-76
2023/09/04 04:59:21;;;;;;;19.70;12.95;;;;;;;10.39;100.00;101796.78;5039885;28;20420;-77
2023/09/04 05:01:47;;;;;;;18.55;13.52;;;;;;;10.36;100.00;101789.81;5038027;28;20119;-78
2023/09/04 05:04:13;;;;;;;20.80;14.57;;;;;;;10.35;100.00;101790.00;5039195;28;20060;-78
2023/09/04 05:06:39;;;;;;;18.85;14.60;;;;;;;10.33;100.00;101792.06;5040082;28;20033;-78
2023/09/04 05:09:07;;;;;;;23.13;16.15;;;;;;;10.31;100.00;101799.56;5033479;28;20136;-77
2023/09/04 05:11:34;;;;;;;22.67;16.57;;;;;;;10.33;100.00;101792.06;5043988;28;20568;-77
2023/09/04 05:14:00;;;;;;;21.35;15.02;;;;;;;10.36;100.00;101802.63;5044574;28;20301;-77
2023/09/04 05:16:27;;;;;;;23.80;16.48;;;;;;;10.41;100.00;101794.75;5038352;28;20236;-77
2023/09/04 05:18:54;;;;;;;24.08;16.83;;;;;;;10.49;100.00;101780.16;5048093;28;20029;-77
2023/09/04 05:21:21;;;;;;;25.50;17.17;;;;;;;10.56;100.00;101782.97;5031928;28;20029;-76
2023/09/04 05:23:50;;;;;;;26.27;16.63;;;;;;;10.59;100.00;101780.72;5038081;28;20037;-77
2023/09/04 05:26:16;;;;;;;26.83;18.05;;;;;;;10.69;100.00;101769.50;5042222;28;20065;-77
2023/09/04 05:28:42;;;;;;;28.30;19.17;;;;;;;10.84;100.00;101774.09;5035888;28;20047;-77
2023/09/04 05:31:08;;;;;;;34.85;20.02;;;;;;;10.95;100.00;101773.59;5043750;28;20047;-78
2023/09/04 05:33:34;;;;;;;32.90;21.13;;;;;;;11.06;100.00;101770.38;5046642;28;20063;-79
2023/09/04 05:36:00;;;;;;;35.70;21.35;;;;;;;11.22;100.00;101768.44;5041041;28;20401;-78
2023/09/04 05:38:27;;;;;;;39.58;23.55;;;;;;;11.36;100.00;101766.69;5042924;28;20046;-78
2023/09/04 05:40:58;;;;;;;41.30;24.10;;;;;;;11.54;100.00;101768.09;5040265;28;20033;-79
2023/09/04 05:43:24;;;;;;;43.33;24.48;;;;;;;11.71;100.00;101764.06;5047347;28;20052;-78
2023/09/04 05:45:50;;;;;;;39.90;23.77;;;;;;;11.84;100.00;101752.41;5042844;28;20112;-78
2023/09/04 05:48:16;;;;;;;43.20;24.52;;;;;;;12.00;100.00;101753.16;5034088;28;20497;-78
2023/09/04 05:50:43;;;;;;;40.67;24.98;;;;;;;12.13;100.00;101756.00;5039966;28;20124;-78
2023/09/04 05:53:09;;;;;;;42.60;25.83;;;;;;;12.21;100.00;101757.75;5036373;28;20392;-78
2023/09/04 05:55:40;;;;;;;41.30;25.02;;;;;;;12.33;100.00;101756.16;5042023;28;20029;-79
2023/09/04 05:58:06;;;;;;;41.22;24.40;;;;;;;12.41;100.00;101759.75;5035456;28;20034;-80
2023/09/04 06:00:32;;;;;;;40.85;25.38;;;;;;;12.51;100.00;101747.41;5034123;28;20068;-79
2023/09/04 06:03:01;;;;;;;42.03;25.05;;;;;;;12.64;100.00;101752.09;5034162;28;20085;-78
2023/09/04 06:05:27;;;;;;;46.33;26.10;;;;;;;12.75;100.00;101758.03;5047418;28;20443;-78
2023/09/04 06:07:53;;;;;;;41.40;26.48;;;;;;;12.84;100.00;101755.94;5033962;28;20045;-79
2023/09/04 06:10:19;;;;;;;40.38;26.90;;;;;;;12.94;100.00;101734.50;5037487;28;20032;-78
2023/09/04 06:12:45;;;;;;;44.38;26.42;;;;;;;13.05;100.00;101727.56;5041010;28;20029;-82
2023/09/04 06:15:12;;;;;;;44.80;27.77;;;;;;;13.14;100.00;101726.34;5041180;28;20082;-82
2023/09/04 06:17:38;;;;;;;40.80;26.15;;;;;;;13.34;100.00;101720.03;5036841;28;20037;-80
2023/09/04 06:20:04;;;;;;;47.78;28.52;;;;;;;13.46;100.00;101707.44;5033363;28;20120;-80
2023/09/04 06:22:31;;;;;;;46.25;27.77;;;;;;;13.61;100.00;101701.72;5035791;28;22190;-79
2023/09/04 06:24:57;;;;;;;46.08;27.05;;;;;;;13.73;100.00;101699.19;5040440;28;20072;-80
2023/09/04 06:27:23;;;;;;;42.90;26.05;;;;;;;13.80;100.00;101707.44;5046751;28;20049;-79
2023/09/04 06:29:49;;;;;;;42.50;26.20;;;;;;;13.91;100.00;101709.50;5035886;28;20034;-79
2023/09/04 06:32:15;;;;;;;41.00;27.02;;;;;;;14.01;100.00;101720.06;5044579;28;20498;-77
2023/09/04 06:34:41;;;;;;;40.15;26.98;;;;;;;14.06;100.00;101723.00;5046937;28;20496;-77
2023/09/04 06:37:08;;;;;;;39.75;24.50;;;;;;;14.16;100.00;101730.78;5033835;28;20159;-77
2023/09/04 06:39:34;;;;;;;36.63;24.38;;;;;;;14.21;100.00;101733.72;5035746;28;20029;-77
2023/09/04 06:42:00;;;;;;;36.90;24.70;;;;;;;14.36;100.00;101735.38;5032439;28;20539;-77
2023/09/04 06:44:32;;;;;;;36.97;25.27;;;;;;;14.42;100.00;101734.50;5041150;28;20025;-78
2023/09/04 06:46:58;;;;;;;;;;;;;;;14.65;100.00;101736.75;5034313;28;20064;-78
2023/09/04 06:49:24;;;;;;;38.00;24.85;;;;;;;14.72;100.00;101738.63;5034730;28;19913;-77
2023/09/04 06:51:50;;;;;;;36.75;24.58;;;;;;;14.89;100.00;101739.00;5033461;28;20089;-77
2023/09/04 06:54:16;;;;;;;33.85;25.70;;;;;;;15.01;100.00;101745.47;5038427;28;20059;-77
2023/09/04 06:56:42;;;;;;;35.25;24.63;;;;;;;15.01;100.00;101761.13;5048889;28;20481;-77
2023/09/04 06:59:09;;;;;;;33.33;23.92;;;;;;;15.19;100.00;101763.16;5033791;28;20060;-77
2023/09/04 07:01:35;;;;;;;34.63;24.38;;;;;;;15.39;100.00;101758.38;5033717;28;20116;-76
2023/09/04 07:04:01;;;;;;;34.92;25.33;;;;;;;15.55;100.00;101756.13;5036168;28;20524;-78
2023/09/04 07:06:27;;;;;;;37.03;26.08;;;;;;;15.74;100.00;101754.28;5047242;28;20028;-77
2023/09/04 07:08:53;;;;;;;36.13;24.38;;;;;;;15.95;100.00;101761.34;5056268;28;20052;-76
2023/09/04 07:11:20;;;;;;;34.28;23.83;;;;;;;16.03;100.00;101781.38;5047615;28;20056;-77
2023/09/04 07:13:46;;;;;;;29.40;21.88;;;;;;;16.16;100.00;101800.50;5039092;28;20049;-78
2023/09/04 07:16:12;;;;;;;30.55;19.00;;;;;;;16.30;100.00;101811.41;5043221;28;20045;-77
2023/09/04 07:18:38;;;;;;;27.02;17.60;;;;;;;16.46;100.00;101820.97;5030903;28;20045;-77
2023/09/04 07:21:04;;;;;;;23.08;15.00;;;;;;;16.61;100.00;101840.75;5033179;28;20457;-78
2023/09/04 07:23:30;;;;;;;20.13;14.10;;;;;;;16.73;100.00;101842.72;5046739;28;20033;-78
2023/09/04 07:25:57;;;;;;;20.40;13.30;;;;;;;16.87;100.00;101871.84;5032029;28;20852;-77
2023/09/04 07:28:23;;;;;;;15.63;12.52;;;;;;;17.02;100.00;101881.66;5032494;28;20044;-77
2023/09/04 07:30:49;;;;;;;13.15;9.85;;;;;;;17.16;100.00;101941.09;5033089;28;20426;-78
2023/09/04 07:33:16;;;;;;;10.20;7.60;;;;;;;17.41;100.00;102003.59;5032466;28;20049;-78
2023/09/04 07:35:42;;;;;;;7.65;6.13;;;;;;;17.65;100.00;102040.44;5038535;28;20037;-78
2023/09/04 07:38:10;;;;;;;8.55;6.00;;;;;;;17.97;100.00;102031.94;5039982;28;20038;-85
2023/09/04 07:40:37;;;;;;;6.75;5.07;;;;;;;18.16;100.00;102045.75;5039962;28;20115;-81
2023/09/04 07:43:04;;;;;;;6.75;4.57;;;;;;;18.36;100.00;102059.28;5042794;28;20108;-77
2023/09/04 07:45:30;;;;;;;5.07;3.50;;;;;;;18.47;100.00;102065.91;5033072;28;20049;-78
2023/09/04 07:47:56;;;;;;;8.10;4.10;;;;;;;18.59;100.00;102073.41;5039355;28;20070;-75
2023/09/04 07:50:22;;;;;;;4.75;3.40;;;;;;;18.73;100.00;102069.34;5033380;28;20477;-75
2023/09/04 07:52:48;;;;;;;5.82;3.45;;;;;;;18.73;100.00;102074.88;5031691;28;20068;-76
2023/09/04 07:55:15;;;;;;;5.80;3.20;;;;;;;18.94;100.00;102075.38;5027811;28;20478;-76
2023/09/04 07:57:43;;;;;;;3.75;2.97;;;;;;;19.07;100.00;102077.13;5033617;28;20033;-77
2023/09/04 08:00:09;;;;;;;;;;;;;;;19.26;100.00;102097.19;5031787;28;20132;-76
2023/09/04 08:02:41;;;;;;;4.03;2.97;;;;;;;19.39;100.00;102088.66;5040155;28;19964;-77
2023/09/04 08:05:07;;;;;;;4.85;2.83;;;;;;;19.38;100.00;102098.06;5044204;28;20053;-78
2023/09/04 08:07:33;;;;;;;4.88;2.50;;;;;;;19.35;100.00;102092.16;5042672;28;20056;-76
2023/09/04 08:10:00;;;;;;;4.18;2.70;;;;;;;19.54;100.00;102096.47;5043537;28;20044;-76
2023/09/04 08:12:26;;;;;;;4.75;2.65;;;;;;;19.78;100.00;102101.13;5047953;28;20078;-77
2023/09/04 08:14:52;;;;;;;5.13;3.20;;;;;;;20.03;100.00;102087.03;5046085;28;20082;-76
2023/09/04 08:17:18;;;;;;;5.72;3.25;;;;;;;20.18;100.00;102099.47;5048062;28;20043;-76
2023/09/04 08:19:44;;;;;;;5.15;3.03;;;;;;;20.29;100.00;102108.84;5043617;28;20113;-76
2023/09/04 08:22:10;;;;;;;6.07;2.88;;;;;;;20.18;100.00;102102.25;5044235;28;20037;-76
2023/09/04 08:24:36;;;;;;;4.32;2.83;;;;;;;20.36;100.00;102098.44;5043518;28;20119;-76
2023/09/04 08:27:02;;;;;;;4.53;2.75;;;;;;;20.65;100.00;102104.81;5037078;28;20041;-76
2023/09/04 08:29:28;;;;;;;4.72;2.83;;;;;;;20.69;100.00;102102.38;5034539;28;20033;-76
2023/09/04 08:31:54;;;;;;;5.35;2.72;;;;;;;20.83;100.00;102109.31;5037368;28;20120;-76
2023/09/04 08:34:21;;;;;;;6.47;2.72;;;;;;;20.94;100.00;102109.47;5034898;28;20389;-76
2023/09/04 08:36:47;;;;;;;6.60;2.90;;;;;;;21.16;100.00;102106.78;5037360;28;20041;-76
2023/09/04 08:39:13;;;;;;;4.05;2.78;;;;;;;21.17;100.00;102111.25;5032035;28;20037;-76
2023/09/04 08:41:41;;;;;;;6.30;2.50;;;;;;;21.32;100.00;102107.00;5035093;28;20415;-77
2023/09/04 08:44:08;;;;;;;4.65;2.58;;;;;;;21.52;100.00;102100.94;5032237;28;20033;-77
2023/09/04 08:46:35;;;;;;;5.50;2.70;;;;;;;21.33;100.00;102092.91;5039969;28;20041;-75
2023/09/04 08:49:02;;;;;;;4.65;2.42;;;;;;;21.62;100.00;102101.06;5031978;28;20121;-75
2023/09/04 08:51:30;;;;;;;4.72;2.55;;;;;;;21.62;100.00;102098.28;5041159;28;20033;-78
2023/09/04 08:53:57;;;;;;;3.70;2.03;;;;;;;21.55;100.00;102101.25;5045153;28;20045;-79
2023/09/04 08:56:24;;;;;;;6.47;2.30;;;;;;;21.73;100.00;102095.69;5035112;28;20037;-79
2023/09/04 08:58:50;;;;;;;5.32;2.33;;;;;;;21.75;100.00;102094.34;5031845;28;20041;-80
2023/09/04 09:01:18;;;;;;;4.53;2.60;;;;;;;21.97;100.00;102088.75;5031853;28;20049;-79
2023/09/04 09:03:44;;;;;;;3.35;2.17;;;;;;;21.98;100.00;102092.41;5037781;28;20098;-81
2023/09/04 09:06:10;;;;;;;5.00;2.33;;;;;;;22.04;100.00;102090.53;5034899;28;20199;-84
2023/09/04 09:08:37;;;;;;;4.88;1.80;;;;;;;22.01;100.00;102097.44;5032940;28;20558;-84
2023/09/04 09:11:04;;;;;;;3.27;2.00;;;;;;;21.95;100.00;102090.97;5033973;28;20086;-79
2023/09/04 09:13:30;;;;;;;3.72;2.17;;;;;;;22.46;100.00;102089.88;5034298;28;20048;-78
2023/09/04 09:15:56;;;;;;;5.15;2.40;;;;;;;22.20;100.00;102085.97;5034158;28;20553;-79
2023/09/04 09:18:37;;;;;;;6.22;2.40;;;;;;;22.17;100.00;102098.44;5032148;28;20168;-79
2023/09/04 09:21:21;;;;;;;5.80;2.00;;;;;;;22.20;100.00;102086.81;5035539;28;20532;-78
2023/09/04 09:23:48;;;;;;;3.28;1.98;;;;;;;22.22;100.00;102081.81;5043899;28;20048;-79
2023/09/04 09:26:15;;;;;;;3.78;2.15;;;;;;;22.99;100.00;102078.09;5035506;28;20041;-80
2023/09/04 09:28:44;;;;;;;4.95;2.30;;;;;;;22.78;100.00;102072.38;5034836;28;20504;-79
2023/09/04 09:31:11;;;;;;;3.97;2.47;;;;;;;22.63;100.00;102066.69;5045913;28;20481;-78
2023/09/04 09:33:39;;;;;;;3.95;2.20;;;;;;;22.86;100.00;102068.28;5045531;28;20034;-77
2023/09/04 09:36:11;;;;;;;5.05;2.85;;;;;;;23.01;100.00;102070.34;5034046;28;20540;-76
2023/09/04 09:38:46;;;;;;;3.67;2.10;;;;;;;23.42;100.00;102058.66;5034534;28;20120;-77
2023/09/04 09:41:15;;;;;;;4.03;2.38;;;;;;;23.34;100.00;102046.09;5040620;28;20052;-76
2023/09/04 09:43:41;;;;;;;4.43;2.15;;;;;;;23.69;100.00;102058.53;5040055;28;20049;-78
2023/09/04 09:46:08;;;;;;;3.83;2.42;;;;;;;23.68;95.94;102051.28;5041312;28;20052;-77
2023/09/04 09:48:36;;;;;;;5.45;2.22;;;;;;;24.09;97.76;102056.19;5034870;28;20037;-77
2023/09/04 09:51:06;;;;;;;3.75;2.20;;;;;;;24.35;97.20;102055.38;5034470;28;20555;-77
2023/09/04 09:53:47;;;;;;;5.72;2.30;;;;;;;24.58;100.00;102045.66;5032474;28;20042;-76
2023/09/04 09:56:15;;;;;;;3.30;1.90;;;;;;;24.94;100.00;102042.03;5037206;28;20060;-77
2023/09/04 09:58:45;;;;;;;4.10;1.63;;;;;;;25.35;100.00;102052.28;5031984;28;20037;-77
2023/09/04 10:01:13;;;;;;;5.15;2.17;;;;;;;25.57;81.65;102043.56;5018454;28;20402;-76
2023/09/04 10:03:39;;;;;;;3.38;2.00;;;;;;;25.82;74.57;102041.78;5032059;28;20167;-77
2023/09/04 10:06:08;;;;;;;4.03;2.20;;;;;;;25.98;69.05;102034.97;5032494;28;20045;-77
2023/09/04 10:08:47;;;;;;;4.65;1.90;;;;;;;26.70;73.21;102032.81;5031715;28;20055;-77
2023/09/04 10:11:15;;;;;;;4.32;2.10;;;;;;;27.69;63.00;102032.63;5031603;28;20127;-77
2023/09/04 10:13:53;;;;;;;3.17;2.00;;;;;;;28.71;51.12;102028.56;5036957;28;20084;-76
2023/09/04 10:16:38;;;;;;;3.47;1.65;;;;;;;28.84;48.93;102036.22;5031603;28;20048;-77
2023/09/04 10:19:09;;;;;;;3.35;1.58;;;;;;;29.99;50.59;102051.63;5032075;28;20044;-77
2023/09/04 10:21:40;;;;;;;4.75;2.08;;;;;;;31.11;44.80;102032.25;5031518;28;20454;-77
2023/09/04 10:24:16;;;;;;;14.00;9.00;;;;;;;31.53;41.34;102033.91;5031051;28;20041;-79
2023/09/04 10:26:54;;;;;;;3.17;1.80;;;;;;;31.79;40.30;102028.38;5038594;28;20037;-77
2023/09/04 10:29:25;;;;;;;3.15;1.63;;;;;;;32.46;40.31;102028.22;5039191;28;20041;-76
2023/09/04 10:31:53;;;;;;;2.72;1.50;;;;;;;31.13;40.06;102020.66;5034508;28;20033;-76
2023/09/04 10:34:20;;;;;;;4.95;1.73;;;;;;;31.30;38.21;102014.31;5040501;28;20041;-77
2023/09/04 10:36:48;;;;;;;3.67;1.77;;;;;;;32.00;40.46;102024.91;5033703;28;20034;-76
2023/09/04 10:39:14;;;;;;;3.40;1.92;;;;;;;32.70;39.20;102007.06;5033369;28;20033;-76
2023/09/04 10:41:40;;;;;;;3.22;1.67;;;;;;;32.51;38.94;102011.09;5045340;28;20033;-76
2023/09/04 10:44:08;;;;;;;2.88;1.58;;;;;;;32.00;38.83;102005.97;5033701;28;20041;-76
2023/09/04 10:46:37;;;;;;;3.50;1.80;;;;;;;31.68;39.60;102004.41;5033751;28;20053;-75
2023/09/04 10:49:03;;;;;;;3.90;1.73;;;;;;;32.57;39.52;102009.75;5033916;28;20087;-77
2023/09/04 10:51:32;;;;;;;4.40;1.50;;;;;;;33.40;38.30;102014.44;5033617;28;20378;-76
2023/09/04 10:54:01;;;;;;;3.45;1.60;;;;;;;33.88;34.38;101989.66;5033985;28;20030;-77
2023/09/04 10:56:27;;;;;;;3.03;1.42;;;;;;;33.17;34.37;101980.81;5033128;28;20446;-76
2023/09/04 10:59:00;;;;;;;3.08;1.52;;;;;;;32.55;35.34;101995.13;5042372;28;20381;-75
2023/09/04 11:01:38;;;;;;;3.03;1.63;;;;;;;33.40;37.54;102017.28;5032944;28;20099;-76
2023/09/04 11:04:08;;;;;;;4.53;1.70;;;;;;;33.52;32.66;101985.47;5033295;28;20478;-75
2023/09/04 11:06:39;;;;;;;4.10;1.83;;;;;;;34.08;33.98;102005.00;5033396;28;20500;-75
2023/09/04 11:09:09;;;;;;;3.28;1.42;;;;;;;33.46;34.27;102001.78;5032726;28;20607;-76
2023/09/04 11:11:36;;;;;;;3.58;1.90;;;;;;;33.63;36.45;102012.16;5035145;28;20049;-76